MMTC/TRC METAR and TAF weather

Enter ICAO airport designator
Station Type Date Time Source
MMTC METAR 2022/05/26 02:47 UTC NOAA

MMTC 260247Z 00000KT 10SM SKC 31/M06 A2994 RMK SLP020 52014 941


Station Type Date Time Source
MMTC Decoded METAR 2022/05/26 02:47 UTC NOAA

Torreon, Coah., Mexico (MMTC) 25-32N 103-27W 1150M
May 25, 2022 - 10:47 PM EDT / 2022.05.26 0247 UTC
Wind: Calm:0
Visibility: 10 mile(s):0
Sky conditions: clear
Temperature: 87 F (31 C)
Dew Point: 21 F (-6 C)
Relative Humidity: 8%
Pressure (altimeter): 29.94 in. Hg (1013 hPa)
Pressure tendency: 0.04 inches (1.4 hPa) higher than three hours ago
ob: MMTC 260247Z 00000KT 10SM SKC 31/M06 A2994 RMK SLP020 52014 941
cycle: 3

Station Type Date Time Source
MMTC TAF 2022/05/26 06:25 UTC NOAA

TAF MMTC 260421Z 2606/2706 06005KT P6SM SKC
FM261800 06010KT P6SM SKC
FM270200 06005KT P6SM SKC

Example: see airport list